Terminal Aerodrome Forecast
Issued by NWS Lake Charles, LA

Home | Current Version | Previous Version | Text Only | Print | Product List | Glossary On
Versions: 1 2 3 4 5 6 7 8 9 10 11 12 13 14 15 16 17 18
095
FTUS44 KLCH 180539
TAFAEX
TAF
KAEX 180539Z 1806/1906 VRB03KT P6SM VCSH OVC009
      TEMPO 1806/1810 SCT009 OVC016
     FM181000 09003KT 5SM BR VCSH OVC004
      TEMPO 1810/1814 2SM -RA BR FEW004 OVC009
     FM181400 12007KT 5SM -SHRA BR OVC009
      TEMPO 1814/1818 FEW009 BKN014
     FM181900 13010KT P6SM -SHRA BKN016 OVC024=

USA.gov is the U.S. government's official web portal to all federal, state and local government web resources and services.